Isis — PBXD — position and weather

sailwx.info

Track history (hours):
 
Tides and Currents Weather Stations Pressure Air Temp Water Temp Dewpoint Dewpoint Depression Visibility Wind Speed Wind Dir Waves Ship Positions

Oceanographic research ship Isis (Netherlands)

Detailed information on ship capabilities available from University of Delaware's Ocean Information Center.

Last reported at 2019-Apr-18 13:25 UTC. Time now 2019-Apr-18 20:19 UTC.
Position N 51°30' E 003°15'.

Length 28 m; beam 8 m.

Type: Other ship. MMSI: 244767000.

Date/timePositionNaut miles runAvg speedWind from/ knotsBaromVisibWave heightAir tempDewpointWater temp
2019-Apr-18 13:25N 51°30' E 003°15'9 1.7
2019-Apr-18 08:12N 51°25' E 003°27'1 4.2
2019-Apr-18 07:51N 51°26' E 003°29'0 0.0
2019-Apr-18 07:09N 51°26' E 003°29'0 0.0
2019-Apr-18 06:08N 51°26' E 003°29'0 0.0
2019-Apr-18 05:50N 51°26' E 003°29'0 0.0
2019-Apr-18 05:29N 51°26' E 003°29'0 0.0
2019-Apr-18 04:59N 51°26' E 003°29'0 0.0
2019-Apr-18 04:21N 51°26' E 003°29'0 0.0
2019-Apr-18 03:42N 51°26' E 003°29'0 0.0
2019-Apr-18 03:26N 51°26' E 003°29'0 0.0
2019-Apr-18 02:56N 51°26' E 003°29'0 0.0
2019-Apr-18 00:23N 51°26' E 003°29'0 0.0
2019-Apr-17 23:47N 51°26' E 003°29'0 0.0
2019-Apr-17 23:23N 51°26' E 003°29'0 0.0
2019-Apr-17 22:32N 51°26' E 003°29'0 0.0
2019-Apr-17 22:29N 51°26' E 003°29'0 0.0
2019-Apr-17 19:41N 51°26' E 003°29'0 0.0
2019-Apr-17 17:46N 51°26' E 003°29'1 2.5
2019-Apr-17 17:19N 51°26' E 003°27'1 4.5
2019-Apr-17 17:00N 51°26' E 003°29'1 1.1
2019-Apr-17 16:30N 51°26' E 003°28'1 2.5
2019-Apr-17 16:00N 51°25' E 003°30'3 5.6
2019-Apr-17 15:26N 51°24' E 003°25'0 0.2
2019-Apr-17 14:42N 51°24' E 003°25'1 1.5
2019-Apr-17 14:12N 51°24' E 003°24'1 6.0
2019-Apr-17 13:59N 51°24' E 003°21'15 2.1
2019-Apr-17 06:58N 51°36' E 003°34'3 5.5
2019-Apr-17 06:26N 51°37' E 003°39'1 2.3
2019-Apr-17 05:51N 51°37' E 003°41'0 0.0
2019-Apr-16 18:10N 51°37' E 003°41'5 4.5
2019-Apr-16 17:09N 51°39' E 003°34'1 7.2
2019-Apr-16 16:57N 51°39' E 003°32'0 0.1
2019-Apr-16 11:21N 51°39' E 003°31'15 0.7
2019-Apr-15 14:59N 51°50' E 003°48'3 4.2
2019-Apr-15 14:22N 51°52' E 003°51'1 4.1
2019-Apr-15 14:00N 51°52' E 003°53'1 1.8
2019-Apr-15 13:30N 51°53' E 003°53'2 3.7
2019-Apr-15 12:59N 51°54' E 003°55'1 2.1
2019-Apr-15 12:30N 51°55' E 003°56'1 2.6
2019-Apr-15 12:00N 51°56' E 003°57'2 4.4
2019-Apr-15 11:30N 51°58' E 003°57'0 1.0
2019-Apr-15 11:00N 51°58' E 003°57'1 1.0
2019-Apr-15 10:30N 51°59' E 003°57'2 3.7
2019-Apr-15 10:00N 52°00' E 003°60'3 6.0
2019-Apr-15 09:30N 52°02' E 004°03'4 7.2
2019-Apr-15 09:00N 52°05' E 004°07'3 6.9
2019-Apr-15 08:30N 52°08' E 004°10'3 5.9
2019-Apr-15 08:01N 52°07' E 004°14'1 2.9
2019-Apr-15 07:30N 52°06' E 004°16'0 0.0
2019-Apr-15 07:00N 52°06' E 004°16'0 0.0
2019-Apr-15 06:30N 52°06' E 004°16'0 0.0
2019-Apr-15 06:00N 52°06' E 004°16'0 0.0
2019-Apr-15 05:30N 52°06' E 004°16'0 0.0
2019-Apr-15 05:00N 52°06' E 004°16'0 0.0
2019-Apr-15 04:30N 52°06' E 004°16'0 0.0
2019-Apr-15 04:00N 52°06' E 004°16'0 0.0
2019-Apr-15 03:30N 52°06' E 004°16'0 0.0
2019-Apr-15 02:57N 52°06' E 004°16'0 0.0
2019-Apr-15 02:30N 52°06' E 004°16'0 0.0
2019-Apr-15 02:00N 52°06' E 004°16'0 0.0
2019-Apr-15 01:30N 52°06' E 004°16'0 0.0
2019-Apr-15 01:00N 52°06' E 004°16'0 0.0
2019-Apr-15 00:30N 52°06' E 004°16'0 0.0
2019-Apr-15 00:00N 52°06' E 004°16'0 0.0
2019-Apr-14 23:30N 52°06' E 004°16'0 0.0
2019-Apr-14 23:00N 52°06' E 004°16'0 0.0
2019-Apr-14 22:30N 52°06' E 004°16'0 0.0
2019-Apr-14 22:00N 52°06' E 004°16'0 0.0
2019-Apr-14 21:30N 52°06' E 004°16'0 0.0
2019-Apr-14 21:00N 52°06' E 004°16'0 0.0
2019-Apr-14 20:30N 52°06' E 004°16'0 0.0
2019-Apr-14 20:00N 52°06' E 004°16'0 0.0
2019-Apr-14 19:27N 52°06' E 004°16'0 0.0
2019-Apr-14 19:00N 52°06' E 004°16'0 0.0
2019-Apr-14 18:30N 52°06' E 004°16'0 0.0
2019-Apr-14 18:00N 52°06' E 004°16'0 0.0
2019-Apr-14 17:27N 52°06' E 004°16'0 0.0
2019-Apr-14 17:00N 52°06' E 004°16'0 0.0
2019-Apr-14 16:30N 52°06' E 004°16'0 0.0
2019-Apr-14 16:00N 52°06' E 004°16'0 0.0
2019-Apr-14 15:30N 52°06' E 004°16'0 0.0
2019-Apr-14 15:00N 52°06' E 004°16'0 0.0
2019-Apr-14 14:30N 52°06' E 004°16'0 0.0
2019-Apr-14 14:00N 52°06' E 004°16'0 0.0
2019-Apr-14 13:30N 52°06' E 004°16'0 0.0
2019-Apr-14 13:00N 52°06' E 004°16'0 0.0
2019-Apr-14 12:30N 52°06' E 004°16'0 0.0
2019-Apr-14 12:00N 52°06' E 004°16'0 0.0
2019-Apr-14 11:30N 52°06' E 004°16'0 0.0
2019-Apr-14 11:00N 52°06' E 004°16'0 0.0
2019-Apr-14 10:30N 52°06' E 004°16'0 0.0
2019-Apr-14 10:00N 52°06' E 004°16'0 0.0
2019-Apr-14 09:27N 52°06' E 004°16'0 0.0
2019-Apr-14 08:57N 52°06' E 004°16'0 0.0
2019-Apr-14 08:30N 52°06' E 004°16'0 0.0
2019-Apr-14 08:00N 52°06' E 004°16'0 0.0
2019-Apr-14 07:30N 52°06' E 004°16'0 0.0
2019-Apr-14 07:00N 52°06' E 004°16'0 0.0
2019-Apr-14 06:30N 52°06' E 004°16'0 0.0
2019-Apr-14 06:00N 52°06' E 004°16'0 0.0
2019-Apr-14 05:30N 52°06' E 004°16'0 0.0
2019-Apr-14 05:00N 52°06' E 004°16'0 0.0
2019-Apr-14 04:30N 52°06' E 004°16'0 0.0
2019-Apr-14 03:57N 52°06' E 004°16'0 0.0
2019-Apr-14 03:30N 52°06' E 004°16'0 0.0
2019-Apr-14 03:00N 52°06' E 004°16'0 0.0
2019-Apr-14 02:30N 52°06' E 004°16'0 0.0
2019-Apr-14 02:00N 52°06' E 004°16'0 0.0
2019-Apr-14 01:30N 52°06' E 004°16'0 0.0
2019-Apr-14 01:00N 52°06' E 004°16'0 0.0
2019-Apr-14 00:30N 52°06' E 004°16'0 0.0
2019-Apr-13 23:57N 52°06' E 004°16'0 0.0
2019-Apr-13 23:30N 52°06' E 004°16'0 0.0
2019-Apr-13 23:00N 52°06' E 004°16'0 0.0
2019-Apr-13 22:30N 52°06' E 004°16'0 0.0
2019-Apr-13 21:57N 52°06' E 004°16'0 0.0
2019-Apr-13 21:30N 52°06' E 004°16'0 0.0
2019-Apr-13 21:00N 52°06' E 004°16'0 0.0
2019-Apr-13 20:30N 52°06' E 004°16'0 0.0
2019-Apr-13 20:00N 52°06' E 004°16'0 0.0
2019-Apr-13 19:30N 52°06' E 004°16'0 0.0
2019-Apr-13 19:00N 52°06' E 004°16'0 0.0
2019-Apr-13 18:30N 52°06' E 004°16'0 0.0
2019-Apr-13 18:00N 52°06' E 004°16'0 0.0
2019-Apr-13 17:30N 52°06' E 004°16'0 0.0
2019-Apr-13 17:00N 52°06' E 004°16'0 0.0
2019-Apr-13 16:30N 52°06' E 004°16'0 0.0
2019-Apr-13 16:00N 52°06' E 004°16'0 0.0
2019-Apr-13 15:30N 52°06' E 004°16'0 0.0
2019-Apr-13 15:00N 52°06' E 004°16'0 0.0
2019-Apr-13 14:30N 52°06' E 004°16'0 0.0
2019-Apr-13 14:00N 52°06' E 004°16'0 0.0
2019-Apr-13 13:30N 52°06' E 004°16'0 0.0
2019-Apr-13 13:00N 52°06' E 004°16'0 0.0
2019-Apr-13 12:30N 52°06' E 004°16'0 0.0
2019-Apr-13 11:57N 52°06' E 004°16'0 0.0
2019-Apr-13 11:30N 52°06' E 004°16'0 0.0
2019-Apr-13 11:00N 52°06' E 004°16'0 0.0
2019-Apr-13 10:30N 52°06' E 004°16'0 0.0
2019-Apr-13 10:00N 52°06' E 004°16'0 0.0
2019-Apr-13 09:30N 52°06' E 004°16'0 0.0
2019-Apr-13 09:00N 52°06' E 004°16'0 0.0
2019-Apr-13 08:30N 52°06' E 004°16'0 0.0
2019-Apr-13 08:00N 52°06' E 004°16'0 0.0
2019-Apr-13 07:27N 52°06' E 004°16'0 0.0
2019-Apr-13 07:00N 52°06' E 004°16'0 0.0
2019-Apr-13 06:30N 52°06' E 004°16'0 0.0
2019-Apr-13 06:00N 52°06' E 004°16'0 0.0
2019-Apr-13 05:30N 52°06' E 004°16'0 0.0
2019-Apr-13 05:00N 52°06' E 004°16'0 0.0
2019-Apr-13 04:27N 52°06' E 004°16'0 0.0
2019-Apr-13 03:57N 52°06' E 004°16'0 0.0
2019-Apr-13 03:27N 52°06' E 004°16'0 0.0
2019-Apr-13 03:00N 52°06' E 004°16'0 0.0
2019-Apr-13 02:30N 52°06' E 004°16'0 0.0
2019-Apr-13 02:00N 52°06' E 004°16'0 0.0
2019-Apr-13 01:30N 52°06' E 004°16'0 0.0
2019-Apr-13 01:00N 52°06' E 004°16'0 0.0
2019-Apr-13 00:30N 52°06' E 004°16'0 0.0
2019-Apr-13 00:00N 52°06' E 004°16'0 0.0
2019-Apr-12 23:30N 52°06' E 004°16'0 0.0
2019-Apr-12 23:00N 52°06' E 004°16'0 0.0
2019-Apr-12 22:30N 52°06' E 004°16'0 0.0
2019-Apr-12 22:00N 52°06' E 004°16'0 0.0
2019-Apr-12 21:30N 52°06' E 004°16'0 0.0
2019-Apr-12 21:00N 52°06' E 004°16'0 0.0
2019-Apr-12 20:30N 52°06' E 004°16'0 0.0
2019-Apr-12 20:00N 52°06' E 004°16'0 0.0
2019-Apr-12 19:30N 52°06' E 004°16'0 0.0
2019-Apr-12 19:00N 52°06' E 004°16'0 0.0
2019-Apr-12 18:30N 52°06' E 004°16'0 0.0
2019-Apr-12 18:00N 52°06' E 004°16'0 0.0
2019-Apr-12 17:27N 52°06' E 004°16'0 0.0
2019-Apr-12 17:00N 52°06' E 004°16'0 0.0
2019-Apr-12 16:30N 52°06' E 004°16'0 0.0
2019-Apr-12 16:00N 52°06' E 004°16'0 0.0
2019-Apr-12 15:30N 52°06' E 004°16'0 0.0
2019-Apr-12 15:00N 52°06' E 004°16'0 0.0
2019-Apr-12 14:30N 52°06' E 004°16'0 0.0
2019-Apr-12 14:00N 52°06' E 004°16'0 0.0
2019-Apr-12 13:30N 52°06' E 004°16'0 0.0
2019-Apr-12 13:00N 52°06' E 004°16'0 0.0
2019-Apr-12 12:30N 52°06' E 004°16'0 0.0
2019-Apr-12 12:00N 52°06' E 004°16'0 0.0
2019-Apr-12 11:27N 52°06' E 004°16'0 0.0
2019-Apr-12 11:00N 52°06' E 004°16'0 0.0
2019-Apr-12 10:30N 52°06' E 004°16'0 0.0
2019-Apr-12 10:01N 52°06' E 004°16'1 2.2
2019-Apr-12 09:30N 52°07' E 004°16'1 2.1
2019-Apr-12 08:59N 52°06' E 004°16'0 0.0
2019-Apr-12 08:29N 52°06' E 004°16'0 0.0
2019-Apr-12 07:59N 52°06' E 004°16'0 0.0
2019-Apr-12 07:29N 52°06' E 004°16'0 0.0
2019-Apr-12 06:59N 52°06' E 004°16'0 0.0
2019-Apr-12 06:29N 52°06' E 004°16'0 0.0
2019-Apr-12 05:59N 52°06' E 004°16'0 0.0
2019-Apr-12 05:29N 52°06' E 004°16'0 0.0
2019-Apr-12 04:59N 52°06' E 004°16'0 0.0
2019-Apr-12 04:29N 52°06' E 004°16'0 0.0
2019-Apr-12 03:59N 52°06' E 004°16'0 0.0
2019-Apr-12 03:29N 52°06' E 004°16'0 0.0
2019-Apr-12 02:59N 52°06' E 004°16'0 0.0
2019-Apr-12 02:29N 52°06' E 004°16'0 0.0
2019-Apr-12 01:59N 52°06' E 004°16'0 0.0
2019-Apr-12 01:29N 52°06' E 004°16'0 0.0
2019-Apr-12 00:59N 52°06' E 004°16'0 0.0
2019-Apr-12 00:29N 52°06' E 004°16'0 0.0
2019-Apr-11 23:59N 52°06' E 004°16'0 0.0
2019-Apr-11 23:26N 52°06' E 004°16'0 0.0
2019-Apr-11 22:59N 52°06' E 004°16'0 0.0
2019-Apr-11 22:29N 52°06' E 004°16'0 0.0
2019-Apr-11 21:59N 52°06' E 004°16'0 0.0
2019-Apr-11 21:29N 52°06' E 004°16'0 0.0
2019-Apr-11 20:59N 52°06' E 004°16'0 0.0
2019-Apr-11 20:29N 52°06' E 004°16'0 0.0
2019-Apr-11 19:59N 52°06' E 004°16'0 0.0
2019-Apr-11 19:29N 52°06' E 004°16'0 0.0
2019-Apr-11 18:59N 52°06' E 004°16'0 0.4
2019-Apr-11 18:31N 52°06' E 004°16'4 8.8
2019-Apr-11 18:00N 52°10' E 004°13'3 6.1
2019-Apr-11 17:31N 52°13' E 004°13'3 6.6
2019-Apr-11 17:00N 52°16' E 004°15'0 0.6
2019-Apr-11 16:30N 52°16' E 004°15'2 3.5
2019-Apr-11 16:01N 52°18' E 004°15'4 7.2
2019-Apr-11 15:30N 52°21' E 004°17'2 3.9
2019-Apr-11 15:00N 52°21' E 004°20'3 6.4
2019-Apr-11 14:30N 52°18' E 004°18'3 5.3
2019-Apr-11 14:01N 52°16' E 004°17'2 4.3
2019-Apr-11 13:31N 52°14' E 004°15'3 5.4
2019-Apr-11 13:01N 52°12' E 004°15'2 4.5
2019-Apr-11 12:30N 52°10' E 004°17'3 6.1
2019-Apr-11 12:00N 52°08' E 004°14'3 5.8
2019-Apr-11 11:31N 52°06' E 004°10'1 1.5
2019-Apr-11 11:00N 52°06' E 004°09'0 0.9
2019-Apr-11 10:31N 52°05' E 004°09'1 2.0
2019-Apr-11 10:00N 52°04' E 004°08'3 5.5
2019-Apr-11 09:31N 52°02' E 004°05'3 5.6
2019-Apr-11 09:00N 52°00' E 004°02'3 6.5
2019-Apr-11 08:31N 52°02' E 004°07'2 4.6
2019-Apr-11 08:00N 52°03' E 004°09'3 5.6
2019-Apr-11 07:31N 52°06' E 004°12'2 4.5
2019-Apr-11 07:01N 52°06' E 004°16'0 0.5
2019-Apr-11 06:30N 52°06' E 004°16'0 0.0
2019-Apr-11 06:00N 52°06' E 004°16'0 0.0
2019-Apr-11 05:30N 52°06' E 004°16'0 0.0
2019-Apr-11 05:00N 52°06' E 004°16'0 0.0
2019-Apr-11 04:27N 52°06' E 004°16'0 0.0
2019-Apr-11 04:00N 52°06' E 004°16'0 0.0
2019-Apr-11 03:27N 52°06' E 004°16'0 0.0
2019-Apr-11 03:00N 52°06' E 004°16'0 0.0
2019-Apr-11 02:25N 52°06' E 004°16'0 0.0
2019-Apr-11 01:57N 52°06' E 004°16'0 0.0
2019-Apr-11 00:57N 52°06' E 004°16'0 0.0
2019-Apr-11 00:25N 52°06' E 004°16'0 0.0
2019-Apr-11 00:00N 52°06' E 004°16'0 0.0
2019-Apr-10 23:21N 52°06' E 004°16'0 0.0
2019-Apr-10 22:57N 52°06' E 004°16'0 0.0
2019-Apr-10 22:06N 52°06' E 004°16'0 0.0
2019-Apr-10 21:24N 52°06' E 004°16'0 0.0
2019-Apr-10 21:00N 52°06' E 004°16'0 0.0
2019-Apr-10 20:30N 52°06' E 004°16'0 0.0
2019-Apr-10 20:00N 52°06' E 004°16'0 0.0
2019-Apr-10 19:30N 52°06' E 004°16'1 2.6
2019-Apr-10 19:00N 52°07' E 004°15'5 9.1
2019-Apr-10 18:31N 52°12' E 004°17'4 8.8
2019-Apr-10 18:00N 52°16' E 004°19'4 7.4
2019-Apr-10 17:31N 52°19' E 004°22'3 6.1
2019-Apr-10 17:01N 52°22' E 004°23'0 0.5
2019-Apr-10 16:30N 52°22' E 004°23'1 2.8
2019-Apr-10 16:00N 52°23' E 004°24'2 4.9
2019-Apr-10 15:31N 52°26' E 004°25'3 6.8
2019-Apr-10 15:00N 52°29' E 004°25'3 6.8
2019-Apr-10 14:30N 52°32' E 004°28'3 6.3
2019-Apr-10 14:00N 52°35' E 004°30'1 1.5
2019-Apr-10 13:30N 52°36' E 004°30'3 5.0
2019-Apr-10 13:00N 52°38' E 004°30'2 4.7
2019-Apr-10 12:30N 52°40' E 004°32'4 8.1
2019-Apr-10 12:00N 52°44' E 004°32'3 5.2
2019-Apr-10 11:30N 52°46' E 004°35'1 1.7
2019-Apr-10 11:00N 52°47' E 004°34'1 1.0
2019-Apr-10 10:28N 52°46' E 004°34'1 3.0
2019-Apr-10 10:00N 52°46' E 004°36'2 4.5
2019-Apr-10 09:29N 52°48' E 004°38'2 5.2
2019-Apr-10 09:00N 52°50' E 004°40'2 4.4
2019-Apr-10 08:30N 52°52' E 004°37'1 2.4
2019-Apr-10 08:00N 52°52' E 004°39'2 4.0
2019-Apr-10 07:30N 52°54' E 004°40'3 5.5
2019-Apr-10 07:00N 52°57' E 004°41'3 5.8
2019-Apr-10 06:30N 52°58' E 004°45'1 2.6
2019-Apr-10 05:58N 52°58' E 004°47'0 0.0
2019-Apr-10 05:28N 52°58' E 004°47'0 0.0
2019-Apr-10 04:58N 52°58' E 004°47'0 0.0
2019-Apr-10 04:28N 52°58' E 004°47'0 0.0
2019-Apr-10 03:58N 52°58' E 004°47'0 0.0
2019-Apr-10 03:28N 52°58' E 004°47'0 0.0
2019-Apr-10 02:58N 52°58' E 004°47'0 0.0
2019-Apr-10 02:28N 52°58' E 004°47'0 0.0
2019-Apr-10 01:58N 52°58' E 004°47'0 0.0
2019-Apr-10 01:28N 52°58' E 004°47'0 0.0
2019-Apr-10 00:58N 52°58' E 004°47'0 0.0
2019-Apr-10 00:28N 52°58' E 004°47'0 0.0
2019-Apr-09 23:58N 52°58' E 004°47'0 0.0
2019-Apr-09 23:28N 52°58' E 004°47'0 0.0
2019-Apr-09 22:58N 52°58' E 004°47'0 0.0
2019-Apr-09 22:28N 52°58' E 004°47'0 0.0
2019-Apr-09 21:58N 52°58' E 004°47'0 0.0
2019-Apr-09 21:28N 52°58' E 004°47'0 0.0
2019-Apr-09 20:58N 52°58' E 004°47'0 0.0
2019-Apr-09 20:28N 52°58' E 004°47'0 0.0
2019-Apr-09 19:58N 52°58' E 004°47'0 0.0
2019-Apr-09 19:28N 52°58' E 004°47'0 0.0
2019-Apr-09 18:58N 52°58' E 004°47'0 0.0
2019-Apr-09 18:28N 52°58' E 004°47'0 0.5
2019-Apr-09 18:00N 52°58' E 004°47'2 4.7
2019-Apr-09 17:30N 52°58' E 004°43'4 8.3
2019-Apr-09 17:00N 52°53' E 004°42'7 8.2
2019-Apr-09 16:12N 52°47' E 004°38'2 8.2
2019-Apr-09 15:56N 52°45' E 004°38'3 7.7
2019-Apr-09 15:31N 52°42' E 004°35'2 4.0
2019-Apr-09 15:00N 52°41' E 004°37'2 4.3
2019-Apr-09 14:30N 52°39' E 004°35'2 3.9
2019-Apr-09 14:00N 52°38' E 004°32'1 1.4
2019-Apr-09 13:30N 52°37' E 004°32'2 3.7
2019-Apr-09 13:00N 52°36' E 004°35'2 3.6
2019-Apr-09 12:30N 52°35' E 004°32'2 4.4
2019-Apr-09 12:00N 52°34' E 004°36'0 0.0
2019-Apr-09 11:30N 52°34' E 004°36'0 0.0
2019-Apr-09 11:00N 52°34' E 004°36'0 0.0
2019-Apr-09 10:30N 52°34' E 004°36'0 0.3
2019-Apr-09 10:00N 52°34' E 004°36'2 3.8
2019-Apr-09 09:30N 52°34' E 004°33'2 4.1
2019-Apr-09 09:01N 52°32' E 004°32'3 5.7
2019-Apr-09 08:30N 52°30' E 004°28'4 7.7
2019-Apr-09 08:00N 52°27' E 004°31'1 1.3
2019-Apr-09 07:30N 52°27' E 004°32'0 0.0
2019-Apr-09 07:00N 52°27' E 004°32'0 0.0
2019-Apr-09 06:30N 52°27' E 004°32'0 0.0
2019-Apr-09 06:00N 52°27' E 004°32'0 0.0
2019-Apr-09 05:27N 52°27' E 004°33'0 0.0
2019-Apr-09 05:00N 52°27' E 004°33'0 0.0
2019-Apr-09 04:30N 52°27' E 004°33'0 0.0
2019-Apr-09 04:00N 52°27' E 004°33'0 0.0
2019-Apr-09 03:30N 52°27' E 004°33'0 0.0
2019-Apr-09 03:00N 52°27' E 004°32'0 0.0
2019-Apr-09 02:30N 52°27' E 004°32'0 0.0
2019-Apr-09 02:00N 52°27' E 004°32'0 0.0
2019-Apr-09 01:30N 52°27' E 004°32'0 0.0
2019-Apr-09 01:00N 52°27' E 004°32'0 0.0
2019-Apr-09 00:30N 52°27' E 004°32'0 0.0
2019-Apr-09 00:00N 52°27' E 004°33'0 0.0
2019-Apr-08 23:30N 52°27' E 004°33'0 0.0
2019-Apr-08 23:00N 52°27' E 004°33'0 0.0
2019-Apr-08 22:27N 52°27' E 004°33'0 0.0
2019-Apr-08 22:00N 52°27' E 004°33'0 0.0
2019-Apr-08 21:30N 52°27' E 004°33'0 0.0
2019-Apr-08 21:00N 52°27' E 004°33'0 0.0
2019-Apr-08 20:30N 52°27' E 004°33'0 0.0
2019-Apr-08 20:00N 52°27' E 004°33'0 0.0
2019-Apr-08 19:30N 52°27' E 004°32'0 0.0
2019-Apr-08 19:00N 52°27' E 004°33'0 0.0
2019-Apr-08 18:30N 52°27' E 004°33'0 0.0
2019-Apr-08 18:00N 52°27' E 004°33'3 6.4
2019-Apr-08 17:30N 52°28' E 004°28'3 5.9
2019-Apr-08 17:01N 52°25' E 004°27'1 2.0
2019-Apr-08 16:30N 52°26' E 004°28'1 2.4
2019-Apr-08 16:00N 52°25' E 004°28'2 4.1
2019-Apr-08 15:31N 52°23' E 004°27'3 6.4
2019-Apr-08 15:01N 52°20' E 004°25'4 7.9
2019-Apr-08 14:30N 52°17' E 004°21'4 7.1
2019-Apr-08 14:01N 52°14' E 004°17'1 2.7
2019-Apr-08 13:31N 52°13' E 004°17'  
Track history (hours):
 
Tides and Currents Weather Stations Pressure Air Temp Water Temp Dewpoint Dewpoint Depression Visibility Wind Speed Wind Dir Waves Ship Positions

Oceanographic research ship Isis (Netherlands)

Detailed information on ship capabilities available from University of Delaware's Ocean Information Center.

Last reported at 2019-Apr-18 13:25 UTC. Time now 2019-Apr-18 20:19 UTC.
Position N 51°30' E 003°15'.

Length 28 m; beam 8 m.

Type: Other ship. MMSI: 244767000.

Date/timePositionNaut miles runAvg speedWind from/ knotsBaromVisibWave heightAir tempDewpointWater temp
2019-Apr-18 13:25N 51°30' E 003°15'9 1.7
2019-Apr-18 08:12N 51°25' E 003°27'1 4.2
2019-Apr-18 07:51N 51°26' E 003°29'0 0.0
2019-Apr-18 07:09N 51°26' E 003°29'0 0.0
2019-Apr-18 06:08N 51°26' E 003°29'0 0.0
2019-Apr-18 05:50N 51°26' E 003°29'0 0.0
2019-Apr-18 05:29N 51°26' E 003°29'0 0.0
2019-Apr-18 04:59N 51°26' E 003°29'0 0.0
2019-Apr-18 04:21N 51°26' E 003°29'0 0.0
2019-Apr-18 03:42N 51°26' E 003°29'0 0.0
2019-Apr-18 03:26N 51°26' E 003°29'0 0.0
2019-Apr-18 02:56N 51°26' E 003°29'0 0.0
2019-Apr-18 00:23N 51°26' E 003°29'0 0.0
2019-Apr-17 23:47N 51°26' E 003°29'0 0.0
2019-Apr-17 23:23N 51°26' E 003°29'0 0.0
2019-Apr-17 22:32N 51°26' E 003°29'0 0.0
2019-Apr-17 22:29N 51°26' E 003°29'0 0.0
2019-Apr-17 19:41N 51°26' E 003°29'0 0.0
2019-Apr-17 17:46N 51°26' E 003°29'1 2.5
2019-Apr-17 17:19N 51°26' E 003°27'1 4.5
2019-Apr-17 17:00N 51°26' E 003°29'1 1.1
2019-Apr-17 16:30N 51°26' E 003°28'1 2.5
2019-Apr-17 16:00N 51°25' E 003°30'3 5.6
2019-Apr-17 15:26N 51°24' E 003°25'0 0.2
2019-Apr-17 14:42N 51°24' E 003°25'1 1.5
2019-Apr-17 14:12N 51°24' E 003°24'1 6.0
2019-Apr-17 13:59N 51°24' E 003°21'15 2.1
2019-Apr-17 06:58N 51°36' E 003°34'3 5.5
2019-Apr-17 06:26N 51°37' E 003°39'1 2.3
2019-Apr-17 05:51N 51°37' E 003°41'0 0.0
2019-Apr-16 18:10N 51°37' E 003°41'5 4.5
2019-Apr-16 17:09N 51°39' E 003°34'1 7.2
2019-Apr-16 16:57N 51°39' E 003°32'0 0.1
2019-Apr-16 11:21N 51°39' E 003°31'15 0.7
2019-Apr-15 14:59N 51°50' E 003°48'3 4.2
2019-Apr-15 14:22N 51°52' E 003°51'1 4.1
2019-Apr-15 14:00N 51°52' E 003°53'1 1.8
2019-Apr-15 13:30N 51°53' E 003°53'2 3.7
2019-Apr-15 12:59N 51°54' E 003°55'1 2.1
2019-Apr-15 12:30N 51°55' E 003°56'1 2.6
2019-Apr-15 12:00N 51°56' E 003°57'2 4.4
2019-Apr-15 11:30N 51°58' E 003°57'0 1.0
2019-Apr-15 11:00N 51°58' E 003°57'1 1.0
2019-Apr-15 10:30N 51°59' E 003°57'2 3.7
2019-Apr-15 10:00N 52°00' E 003°60'3 6.0
2019-Apr-15 09:30N 52°02' E 004°03'4 7.2
2019-Apr-15 09:00N 52°05' E 004°07'3 6.9
2019-Apr-15 08:30N 52°08' E 004°10'3 5.9
2019-Apr-15 08:01N 52°07' E 004°14'1 2.9
2019-Apr-15 07:30N 52°06' E 004°16'0 0.0
2019-Apr-15 07:00N 52°06' E 004°16'0 0.0
2019-Apr-15 06:30N 52°06' E 004°16'0 0.0
2019-Apr-15 06:00N 52°06' E 004°16'0 0.0
2019-Apr-15 05:30N 52°06' E 004°16'0 0.0
2019-Apr-15 05:00N 52°06' E 004°16'0 0.0
2019-Apr-15 04:30N 52°06' E 004°16'0 0.0
2019-Apr-15 04:00N 52°06' E 004°16'0 0.0
2019-Apr-15 03:30N 52°06' E 004°16'0 0.0
2019-Apr-15 02:57N 52°06' E 004°16'0 0.0
2019-Apr-15 02:30N 52°06' E 004°16'0 0.0
2019-Apr-15 02:00N 52°06' E 004°16'0 0.0
2019-Apr-15 01:30N 52°06' E 004°16'0 0.0
2019-Apr-15 01:00N 52°06' E 004°16'0 0.0
2019-Apr-15 00:30N 52°06' E 004°16'0 0.0
2019-Apr-15 00:00N 52°06' E 004°16'0 0.0
2019-Apr-14 23:30N 52°06' E 004°16'0 0.0
2019-Apr-14 23:00N 52°06' E 004°16'0 0.0
2019-Apr-14 22:30N 52°06' E 004°16'0 0.0
2019-Apr-14 22:00N 52°06' E 004°16'0 0.0
2019-Apr-14 21:30N 52°06' E 004°16'0 0.0
2019-Apr-14 21:00N 52°06' E 004°16'0 0.0
2019-Apr-14 20:30N 52°06' E 004°16'0 0.0
2019-Apr-14 20:00N 52°06' E 004°16'0 0.0
2019-Apr-14 19:27N 52°06' E 004°16'0 0.0
2019-Apr-14 19:00N 52°06' E 004°16'0 0.0
2019-Apr-14 18:30N 52°06' E 004°16'0 0.0
2019-Apr-14 18:00N 52°06' E 004°16'0 0.0
2019-Apr-14 17:27N 52°06' E 004°16'0 0.0
2019-Apr-14 17:00N 52°06' E 004°16'0 0.0
2019-Apr-14 16:30N 52°06' E 004°16'0 0.0
2019-Apr-14 16:00N 52°06' E 004°16'0 0.0
2019-Apr-14 15:30N 52°06' E 004°16'0 0.0
2019-Apr-14 15:00N 52°06' E 004°16'0 0.0
2019-Apr-14 14:30N 52°06' E 004°16'0 0.0
2019-Apr-14 14:00N 52°06' E 004°16'0 0.0
2019-Apr-14 13:30N 52°06' E 004°16'0 0.0
2019-Apr-14 13:00N 52°06' E 004°16'0 0.0
2019-Apr-14 12:30N 52°06' E 004°16'0 0.0
2019-Apr-14 12:00N 52°06' E 004°16'0 0.0
2019-Apr-14 11:30N 52°06' E 004°16'0 0.0
2019-Apr-14 11:00N 52°06' E 004°16'0 0.0
2019-Apr-14 10:30N 52°06' E 004°16'0 0.0
2019-Apr-14 10:00N 52°06' E 004°16'0 0.0
2019-Apr-14 09:27N 52°06' E 004°16'0 0.0
2019-Apr-14 08:57N 52°06' E 004°16'0 0.0
2019-Apr-14 08:30N 52°06' E 004°16'0 0.0
2019-Apr-14 08:00N 52°06' E 004°16'0 0.0
2019-Apr-14 07:30N 52°06' E 004°16'0 0.0
2019-Apr-14 07:00N 52°06' E 004°16'0 0.0
2019-Apr-14 06:30N 52°06' E 004°16'0 0.0
2019-Apr-14 06:00N 52°06' E 004°16'0 0.0
2019-Apr-14 05:30N 52°06' E 004°16'0 0.0
2019-Apr-14 05:00N 52°06' E 004°16'0 0.0
2019-Apr-14 04:30N 52°06' E 004°16'0 0.0
2019-Apr-14 03:57N 52°06' E 004°16'0 0.0
2019-Apr-14 03:30N 52°06' E 004°16'0 0.0
2019-Apr-14 03:00N 52°06' E 004°16'0 0.0
2019-Apr-14 02:30N 52°06' E 004°16'0 0.0
2019-Apr-14 02:00N 52°06' E 004°16'0 0.0
2019-Apr-14 01:30N 52°06' E 004°16'0 0.0
2019-Apr-14 01:00N 52°06' E 004°16'0 0.0
2019-Apr-14 00:30N 52°06' E 004°16'0 0.0
2019-Apr-13 23:57N 52°06' E 004°16'0 0.0
2019-Apr-13 23:30N 52°06' E 004°16'0 0.0
2019-Apr-13 23:00N 52°06' E 004°16'0 0.0
2019-Apr-13 22:30N 52°06' E 004°16'0 0.0
2019-Apr-13 21:57N 52°06' E 004°16'0 0.0
2019-Apr-13 21:30N 52°06' E 004°16'0 0.0
2019-Apr-13 21:00N 52°06' E 004°16'0 0.0
2019-Apr-13 20:30N 52°06' E 004°16'0 0.0
2019-Apr-13 20:00N 52°06' E 004°16'0 0.0
2019-Apr-13 19:30N 52°06' E 004°16'0 0.0
2019-Apr-13 19:00N 52°06' E 004°16'0 0.0
2019-Apr-13 18:30N 52°06' E 004°16'0 0.0
2019-Apr-13 18:00N 52°06' E 004°16'0 0.0
2019-Apr-13 17:30N 52°06' E 004°16'0 0.0
2019-Apr-13 17:00N 52°06' E 004°16'0 0.0
2019-Apr-13 16:30N 52°06' E 004°16'0 0.0
2019-Apr-13 16:00N 52°06' E 004°16'0 0.0
2019-Apr-13 15:30N 52°06' E 004°16'0 0.0
2019-Apr-13 15:00N 52°06' E 004°16'0 0.0
2019-Apr-13 14:30N 52°06' E 004°16'0 0.0
2019-Apr-13 14:00N 52°06' E 004°16'0 0.0
2019-Apr-13 13:30N 52°06' E 004°16'0 0.0
2019-Apr-13 13:00N 52°06' E 004°16'0 0.0
2019-Apr-13 12:30N 52°06' E 004°16'0 0.0
2019-Apr-13 11:57N 52°06' E 004°16'0 0.0
2019-Apr-13 11:30N 52°06' E 004°16'0 0.0
2019-Apr-13 11:00N 52°06' E 004°16'0 0.0
2019-Apr-13 10:30N 52°06' E 004°16'0 0.0
2019-Apr-13 10:00N 52°06' E 004°16'0 0.0
2019-Apr-13 09:30N 52°06' E 004°16'0 0.0
2019-Apr-13 09:00N 52°06' E 004°16'0 0.0
2019-Apr-13 08:30N 52°06' E 004°16'0 0.0
2019-Apr-13 08:00N 52°06' E 004°16'0 0.0
2019-Apr-13 07:27N 52°06' E 004°16'0 0.0
2019-Apr-13 07:00N 52°06' E 004°16'0 0.0
2019-Apr-13 06:30N 52°06' E 004°16'0 0.0
2019-Apr-13 06:00N 52°06' E 004°16'0 0.0
2019-Apr-13 05:30N 52°06' E 004°16'0 0.0
2019-Apr-13 05:00N 52°06' E 004°16'0 0.0
2019-Apr-13 04:27N 52°06' E 004°16'0 0.0
2019-Apr-13 03:57N 52°06' E 004°16'0 0.0
2019-Apr-13 03:27N 52°06' E 004°16'0 0.0
2019-Apr-13 03:00N 52°06' E 004°16'0 0.0
2019-Apr-13 02:30N 52°06' E 004°16'0 0.0
2019-Apr-13 02:00N 52°06' E 004°16'0 0.0
2019-Apr-13 01:30N 52°06' E 004°16'0 0.0
2019-Apr-13 01:00N 52°06' E 004°16'0 0.0
2019-Apr-13 00:30N 52°06' E 004°16'0 0.0
2019-Apr-13 00:00N 52°06' E 004°16'0 0.0
2019-Apr-12 23:30N 52°06' E 004°16'0 0.0
2019-Apr-12 23:00N 52°06' E 004°16'0 0.0
2019-Apr-12 22:30N 52°06' E 004°16'0 0.0
2019-Apr-12 22:00N 52°06' E 004°16'0 0.0
2019-Apr-12 21:30N 52°06' E 004°16'0 0.0
2019-Apr-12 21:00N 52°06' E 004°16'0 0.0
2019-Apr-12 20:30N 52°06' E 004°16'0 0.0
2019-Apr-12 20:00N 52°06' E 004°16'0 0.0
2019-Apr-12 19:30N 52°06' E 004°16'0 0.0
2019-Apr-12 19:00N 52°06' E 004°16'0 0.0
2019-Apr-12 18:30N 52°06' E 004°16'0 0.0
2019-Apr-12 18:00N 52°06' E 004°16'0 0.0
2019-Apr-12 17:27N 52°06' E 004°16'0 0.0
2019-Apr-12 17:00N 52°06' E 004°16'0 0.0
2019-Apr-12 16:30N 52°06' E 004°16'0 0.0
2019-Apr-12 16:00N 52°06' E 004°16'0 0.0
2019-Apr-12 15:30N 52°06' E 004°16'0 0.0
2019-Apr-12 15:00N 52°06' E 004°16'0 0.0
2019-Apr-12 14:30N 52°06' E 004°16'0 0.0
2019-Apr-12 14:00N 52°06' E 004°16'0 0.0
2019-Apr-12 13:30N 52°06' E 004°16'0 0.0
2019-Apr-12 13:00N 52°06' E 004°16'0 0.0
2019-Apr-12 12:30N 52°06' E 004°16'0 0.0
2019-Apr-12 12:00N 52°06' E 004°16'0 0.0
2019-Apr-12 11:27N 52°06' E 004°16'0 0.0
2019-Apr-12 11:00N 52°06' E 004°16'0 0.0
2019-Apr-12 10:30N 52°06' E 004°16'0 0.0
2019-Apr-12 10:01N 52°06' E 004°16'1 2.2
2019-Apr-12 09:30N 52°07' E 004°16'1 2.1
2019-Apr-12 08:59N 52°06' E 004°16'0 0.0
2019-Apr-12 08:29N 52°06' E 004°16'0 0.0
2019-Apr-12 07:59N 52°06' E 004°16'0 0.0
2019-Apr-12 07:29N 52°06' E 004°16'0 0.0
2019-Apr-12 06:59N 52°06' E 004°16'0 0.0
2019-Apr-12 06:29N 52°06' E 004°16'0 0.0
2019-Apr-12 05:59N 52°06' E 004°16'0 0.0
2019-Apr-12 05:29N 52°06' E 004°16'0 0.0
2019-Apr-12 04:59N 52°06' E 004°16'0 0.0
2019-Apr-12 04:29N 52°06' E 004°16'0 0.0
2019-Apr-12 03:59N 52°06' E 004°16'0 0.0
2019-Apr-12 03:29N 52°06' E 004°16'0 0.0
2019-Apr-12 02:59N 52°06' E 004°16'0 0.0
2019-Apr-12 02:29N 52°06' E 004°16'0 0.0
2019-Apr-12 01:59N 52°06' E 004°16'0 0.0
2019-Apr-12 01:29N 52°06' E 004°16'0 0.0
2019-Apr-12 00:59N 52°06' E 004°16'0 0.0
2019-Apr-12 00:29N 52°06' E 004°16'0 0.0
2019-Apr-11 23:59N 52°06' E 004°16'0 0.0
2019-Apr-11 23:26N 52°06' E 004°16'0 0.0
2019-Apr-11 22:59N 52°06' E 004°16'0 0.0
2019-Apr-11 22:29N 52°06' E 004°16'0 0.0
2019-Apr-11 21:59N 52°06' E 004°16'0 0.0
2019-Apr-11 21:29N 52°06' E 004°16'0 0.0
2019-Apr-11 20:59N 52°06' E 004°16'0 0.0
2019-Apr-11 20:29N 52°06' E 004°16'0 0.0
2019-Apr-11 19:59N 52°06' E 004°16'0 0.0
2019-Apr-11 19:29N 52°06' E 004°16'0 0.0
2019-Apr-11 18:59N 52°06' E 004°16'0 0.4
2019-Apr-11 18:31N 52°06' E 004°16'4 8.8
2019-Apr-11 18:00N 52°10' E 004°13'3 6.1
2019-Apr-11 17:31N 52°13' E 004°13'3 6.6
2019-Apr-11 17:00N 52°16' E 004°15'0 0.6
2019-Apr-11 16:30N 52°16' E 004°15'2 3.5
2019-Apr-11 16:01N 52°18' E 004°15'4 7.2
2019-Apr-11 15:30N 52°21' E 004°17'2 3.9
2019-Apr-11 15:00N 52°21' E 004°20'3 6.4
2019-Apr-11 14:30N 52°18' E 004°18'3 5.3
2019-Apr-11 14:01N 52°16' E 004°17'2 4.3
2019-Apr-11 13:31N 52°14' E 004°15'3 5.4
2019-Apr-11 13:01N 52°12' E 004°15'2 4.5
2019-Apr-11 12:30N 52°10' E 004°17'3 6.1
2019-Apr-11 12:00N 52°08' E 004°14'3 5.8
2019-Apr-11 11:31N 52°06' E 004°10'1 1.5
2019-Apr-11 11:00N 52°06' E 004°09'0 0.9
2019-Apr-11 10:31N 52°05' E 004°09'1 2.0
2019-Apr-11 10:00N 52°04' E 004°08'3 5.5
2019-Apr-11 09:31N 52°02' E 004°05'3 5.6
2019-Apr-11 09:00N 52°00' E 004°02'3 6.5
2019-Apr-11 08:31N 52°02' E 004°07'2 4.6
2019-Apr-11 08:00N 52°03' E 004°09'3 5.6
2019-Apr-11 07:31N 52°06' E 004°12'2 4.5
2019-Apr-11 07:01N 52°06' E 004°16'0 0.5
2019-Apr-11 06:30N 52°06' E 004°16'0 0.0
2019-Apr-11 06:00N 52°06' E 004°16'0 0.0
2019-Apr-11 05:30N 52°06' E 004°16'0 0.0
2019-Apr-11 05:00N 52°06' E 004°16'0 0.0
2019-Apr-11 04:27N 52°06' E 004°16'0 0.0
2019-Apr-11 04:00N 52°06' E 004°16'0 0.0
2019-Apr-11 03:27N 52°06' E 004°16'0 0.0
2019-Apr-11 03:00N 52°06' E 004°16'0 0.0
2019-Apr-11 02:25N 52°06' E 004°16'0 0.0
2019-Apr-11 01:57N 52°06' E 004°16'0 0.0
2019-Apr-11 00:57N 52°06' E 004°16'0 0.0
2019-Apr-11 00:25N 52°06' E 004°16'0 0.0
2019-Apr-11 00:00N 52°06' E 004°16'0 0.0
2019-Apr-10 23:21N 52°06' E 004°16'0 0.0
2019-Apr-10 22:57N 52°06' E 004°16'0 0.0
2019-Apr-10 22:06N 52°06' E 004°16'0 0.0
2019-Apr-10 21:24N 52°06' E 004°16'0 0.0
2019-Apr-10 21:00N 52°06' E 004°16'0 0.0
2019-Apr-10 20:30N 52°06' E 004°16'0 0.0
2019-Apr-10 20:00N 52°06' E 004°16'0 0.0
2019-Apr-10 19:30N 52°06' E 004°16'1 2.6
2019-Apr-10 19:00N 52°07' E 004°15'5 9.1
2019-Apr-10 18:31N 52°12' E 004°17'4 8.8
2019-Apr-10 18:00N 52°16' E 004°19'4 7.4
2019-Apr-10 17:31N 52°19' E 004°22'3 6.1
2019-Apr-10 17:01N 52°22' E 004°23'0 0.5
2019-Apr-10 16:30N 52°22' E 004°23'1 2.8
2019-Apr-10 16:00N 52°23' E 004°24'2 4.9
2019-Apr-10 15:31N 52°26' E 004°25'3 6.8
2019-Apr-10 15:00N 52°29' E 004°25'3 6.8
2019-Apr-10 14:30N 52°32' E 004°28'3 6.3
2019-Apr-10 14:00N 52°35' E 004°30'1 1.5
2019-Apr-10 13:30N 52°36' E 004°30'3 5.0
2019-Apr-10 13:00N 52°38' E 004°30'2 4.7
2019-Apr-10 12:30N 52°40' E 004°32'4 8.1
2019-Apr-10 12:00N 52°44' E 004°32'3 5.2
2019-Apr-10 11:30N 52°46' E 004°35'1 1.7
2019-Apr-10 11:00N 52°47' E 004°34'1 1.0
2019-Apr-10 10:28N 52°46' E 004°34'1 3.0
2019-Apr-10 10:00N 52°46' E 004°36'2 4.5
2019-Apr-10 09:29N 52°48' E 004°38'2 5.2
2019-Apr-10 09:00N 52°50' E 004°40'2 4.4
2019-Apr-10 08:30N 52°52' E 004°37'1 2.4
2019-Apr-10 08:00N 52°52' E 004°39'2 4.0
2019-Apr-10 07:30N 52°54' E 004°40'3 5.5
2019-Apr-10 07:00N 52°57' E 004°41'3 5.8
2019-Apr-10 06:30N 52°58' E 004°45'1 2.6
2019-Apr-10 05:58N 52°58' E 004°47'0 0.0
2019-Apr-10 05:28N 52°58' E 004°47'0 0.0
2019-Apr-10 04:58N 52°58' E 004°47'0 0.0
2019-Apr-10 04:28N 52°58' E 004°47'0 0.0
2019-Apr-10 03:58N 52°58' E 004°47'0 0.0
2019-Apr-10 03:28N 52°58' E 004°47'0 0.0
2019-Apr-10 02:58N 52°58' E 004°47'0 0.0
2019-Apr-10 02:28N 52°58' E 004°47'0 0.0
2019-Apr-10 01:58N 52°58' E 004°47'0 0.0
2019-Apr-10 01:28N 52°58' E 004°47'0 0.0
2019-Apr-10 00:58N 52°58' E 004°47'0 0.0
2019-Apr-10 00:28N 52°58' E 004°47'0 0.0
2019-Apr-09 23:58N 52°58' E 004°47'0 0.0
2019-Apr-09 23:28N 52°58' E 004°47'0 0.0
2019-Apr-09 22:58N 52°58' E 004°47'0 0.0
2019-Apr-09 22:28N 52°58' E 004°47'0 0.0
2019-Apr-09 21:58N 52°58' E 004°47'0 0.0
2019-Apr-09 21:28N 52°58' E 004°47'0 0.0
2019-Apr-09 20:58N 52°58' E 004°47'0 0.0
2019-Apr-09 20:28N 52°58' E 004°47'0 0.0
2019-Apr-09 19:58N 52°58' E 004°47'0 0.0
2019-Apr-09 19:28N 52°58' E 004°47'0 0.0
2019-Apr-09 18:58N 52°58' E 004°47'0 0.0
2019-Apr-09 18:28N 52°58' E 004°47'0 0.5
2019-Apr-09 18:00N 52°58' E 004°47'2 4.7
2019-Apr-09 17:30N 52°58' E 004°43'4 8.3
2019-Apr-09 17:00N 52°53' E 004°42'7 8.2
2019-Apr-09 16:12N 52°47' E 004°38'2 8.2
2019-Apr-09 15:56N 52°45' E 004°38'3 7.7
2019-Apr-09 15:31N 52°42' E 004°35'2 4.0
2019-Apr-09 15:00N 52°41' E 004°37'2 4.3
2019-Apr-09 14:30N 52°39' E 004°35'2 3.9
2019-Apr-09 14:00N 52°38' E 004°32'1 1.4
2019-Apr-09 13:30N 52°37' E 004°32'2 3.7
2019-Apr-09 13:00N 52°36' E 004°35'2 3.6
2019-Apr-09 12:30N 52°35' E 004°32'2 4.4
2019-Apr-09 12:00N 52°34' E 004°36'0 0.0
2019-Apr-09 11:30N 52°34' E 004°36'0 0.0
2019-Apr-09 11:00N 52°34' E 004°36'0 0.0
2019-Apr-09 10:30N 52°34' E 004°36'0 0.3
2019-Apr-09 10:00N 52°34' E 004°36'2 3.8
2019-Apr-09 09:30N 52°34' E 004°33'2 4.1
2019-Apr-09 09:01N 52°32' E 004°32'3 5.7
2019-Apr-09 08:30N 52°30' E 004°28'4 7.7
2019-Apr-09 08:00N 52°27' E 004°31'1 1.3
2019-Apr-09 07:30N 52°27' E 004°32'0 0.0
2019-Apr-09 07:00N 52°27' E 004°32'0 0.0
2019-Apr-09 06:30N 52°27' E 004°32'0 0.0
2019-Apr-09 06:00N 52°27' E 004°32'0 0.0
2019-Apr-09 05:27N 52°27' E 004°33'0 0.0
2019-Apr-09 05:00N 52°27' E 004°33'0 0.0
2019-Apr-09 04:30N 52°27' E 004°33'0 0.0
2019-Apr-09 04:00N 52°27' E 004°33'0 0.0
2019-Apr-09 03:30N 52°27' E 004°33'0 0.0
2019-Apr-09 03:00N 52°27' E 004°32'0 0.0
2019-Apr-09 02:30N 52°27' E 004°32'0 0.0
2019-Apr-09 02:00N 52°27' E 004°32'0 0.0
2019-Apr-09 01:30N 52°27' E 004°32'0 0.0
2019-Apr-09 01:00N 52°27' E 004°32'0 0.0
2019-Apr-09 00:30N 52°27' E 004°32'0 0.0
2019-Apr-09 00:00N 52°27' E 004°33'0 0.0
2019-Apr-08 23:30N 52°27' E 004°33'0 0.0
2019-Apr-08 23:00N 52°27' E 004°33'0 0.0
2019-Apr-08 22:27N 52°27' E 004°33'0 0.0
2019-Apr-08 22:00N 52°27' E 004°33'0 0.0
2019-Apr-08 21:30N 52°27' E 004°33'0 0.0
2019-Apr-08 21:00N 52°27' E 004°33'0 0.0
2019-Apr-08 20:30N 52°27' E 004°33'0 0.0
2019-Apr-08 20:00N 52°27' E 004°33'0 0.0
2019-Apr-08 19:30N 52°27' E 004°32'0 0.0
2019-Apr-08 19:00N 52°27' E 004°33'0 0.0
2019-Apr-08 18:30N 52°27' E 004°33'0 0.0
2019-Apr-08 18:00N 52°27' E 004°33'3 6.4
2019-Apr-08 17:30N 52°28' E 004°28'3 5.9
2019-Apr-08 17:01N 52°25' E 004°27'1 2.0
2019-Apr-08 16:30N 52°26' E 004°28'1 2.4
2019-Apr-08 16:00N 52°25' E 004°28'2 4.1
2019-Apr-08 15:31N 52°23' E 004°27'3 6.4
2019-Apr-08 15:01N 52°20' E 004°25'4 7.9
2019-Apr-08 14:30N 52°17' E 004°21'4 7.1
2019-Apr-08 14:01N 52°14' E 004°17'1 2.7
2019-Apr-08 13:31N 52°13' E 004°17'  

Dump ship's entire track history